createdAt,value
2022-10-04T00:00:03.921Z,1022.39
2022-10-04T00:16:04.150Z,1022.32
2022-10-04T00:31:01.338Z,1022.25
2022-10-04T00:46:03.440Z,1022.25
2022-10-04T01:00:00.556Z,1022.29
2022-10-04T01:16:03.177Z,1022.29
2022-10-04T01:31:00.154Z,1022.29
2022-10-04T01:46:02.426Z,1022.18
2022-10-04T02:00:04.413Z,1022.18
2022-10-04T02:16:01.718Z,1022.05
2022-10-04T02:31:03.979Z,1022.08
2022-10-04T02:46:01.094Z,1022.29
2022-10-04T03:00:03.015Z,1022.39
2022-10-04T03:16:00.391Z,1022.08
2022-10-04T03:31:02.872Z,1022.18
2022-10-04T03:46:04.746Z,1022.12
2022-10-04T04:00:01.494Z,1022.42
2022-10-04T04:16:04.042Z,1022.42
2022-10-04T04:31:01.198Z,1022.63
2022-10-04T04:46:26.051Z,1022.79
2022-10-04T05:00:00.223Z,1022.93
2022-10-04T05:16:02.728Z,1022.9
2022-10-04T05:30:59.971Z,1022.9
2022-10-04T05:46:02.231Z,1023
2022-10-04T06:00:04.872Z,1023.2
2022-10-04T06:16:01.802Z,1023.2
2022-10-04T06:31:04.398Z,1023.44
2022-10-04T06:46:01.945Z,1023.51
2022-10-04T07:00:03.005Z,1023.37
2022-10-04T07:16:00.482Z,1023.74
2022-10-04T07:31:02.809Z,1023.84
2022-10-04T07:45:59.984Z,1023.84
2022-10-04T08:00:02.179Z,1023.67
2022-10-04T08:16:04.718Z,1023.64
2022-10-04T08:31:01.837Z,1023.81
2022-10-04T08:46:04.019Z,1023.78
2022-10-04T09:00:01.133Z,1023.54
2022-10-04T09:16:15.790Z,1023.61
2022-10-04T09:31:00.904Z,1023.51
2022-10-04T09:46:05.329Z,1023.3
2022-10-04T10:00:04.745Z,1023.3
2022-10-04T10:16:01.472Z,1023.17
2022-10-04T10:31:02.795Z,1023.07
2022-10-04T10:46:04.225Z,1023.03
2022-10-04T11:00:02.672Z,1022.96
2022-10-04T11:16:02.292Z,1022.86
2022-10-04T11:31:04.622Z,1022.69
2022-10-04T11:46:01.809Z,1022.46
2022-10-04T12:00:03.635Z,1022.29
2022-10-04T12:16:01.098Z,1022.22
2022-10-04T12:31:03.314Z,1022.08
2022-10-04T12:46:00.771Z,1021.98
2022-10-04T13:00:02.708Z,1021.74
2022-10-04T13:31:02.293Z,1021.74
2022-10-04T13:46:04.467Z,1021.81
2022-10-04T14:00:01.345Z,1021.81
2022-10-04T14:16:03.934Z,1021.85
2022-10-04T14:31:00.952Z,1021.85
2022-10-04T14:46:03.346Z,1021.95
2022-10-04T15:00:00.462Z,1021.88
2022-10-04T15:16:02.717Z,1021.98
2022-10-04T15:31:00.066Z,1022.08
2022-10-04T15:46:03.598Z,1022.29
2022-10-04T16:00:04.303Z,1022.39
2022-10-04T16:16:01.686Z,1022.46
2022-10-04T16:31:03.962Z,1022.59
2022-10-04T16:46:00.999Z,1022.69
2022-10-04T17:00:03.202Z,1022.96
2022-10-04T17:16:00.611Z,1023.23
2022-10-04T17:31:02.966Z,1023.37
2022-10-04T17:46:00.372Z,1023.64
2022-10-04T18:00:02.540Z,1023.91
2022-10-04T18:15:59.769Z,1024.18
2022-10-04T18:31:02.158Z,1024.39
2022-10-04T18:46:04.185Z,1024.45
2022-10-04T19:00:00.940Z,1024.69
2022-10-04T19:16:03.460Z,1024.79
2022-10-04T19:31:01.009Z,1025.03
2022-10-04T19:46:03.170Z,1025.2
2022-10-04T20:00:01.417Z,1025.3
2022-10-04T20:16:02.956Z,1025.54
2022-10-04T20:31:00.141Z,1025.67
2022-10-04T20:46:02.370Z,1025.74
2022-10-04T21:00:04.316Z,1025.84
2022-10-04T21:16:01.615Z,1026.08
2022-10-04T21:31:03.699Z,1026.28
2022-10-04T21:46:00.967Z,1026.45
2022-10-04T22:00:03.119Z,1026.45
2022-10-04T22:16:00.550Z,1026.38
2022-10-04T22:31:03.006Z,1026.42
2022-10-04T22:46:00.291Z,1026.45
2022-10-04T23:00:02.198Z,1026.42
2022-10-04T23:16:04.664Z,1026.55
2022-10-04T23:31:01.786Z,1026.69
2022-10-04T23:46:04.280Z,1026.79
